createdAt,value
2023-04-24T00:01:08.424Z,11.60
2023-04-24T00:03:35.671Z,11.50
2023-04-24T00:06:03.476Z,11.50
2023-04-24T00:08:30.531Z,11.50
2023-04-24T00:10:57.363Z,11.60
2023-04-24T00:13:24.075Z,11.60
2023-04-24T00:15:50.787Z,11.60
2023-04-24T00:18:17.811Z,11.60
2023-04-24T00:20:44.908Z,11.60
2023-04-24T00:23:11.591Z,11.60
2023-04-24T00:25:38.251Z,11.70
2023-04-24T00:28:05.081Z,11.60
2023-04-24T00:30:31.740Z,11.60
2023-04-24T00:32:58.666Z,11.60
2023-04-24T00:35:26.403Z,11.60
2023-04-24T00:37:53.049Z,11.60
2023-04-24T00:40:19.777Z,11.60
2023-04-24T00:42:46.678Z,11.70
2023-04-24T00:45:14.094Z,11.70
2023-04-24T00:47:42.692Z,11.60
2023-04-24T00:50:09.806Z,11.50
2023-04-24T00:52:36.939Z,11.50
2023-04-24T00:55:04.049Z,11.50
2023-04-24T00:57:31.344Z,11.60
2023-04-24T00:59:58.429Z,11.60
2023-04-24T01:02:26.210Z,11.60
2023-04-24T01:04:53.108Z,11.60
2023-04-24T01:07:22.087Z,11.60
2023-04-24T01:09:50.013Z,11.60
2023-04-24T01:12:16.735Z,11.50
2023-04-24T01:14:43.957Z,11.50
2023-04-24T01:17:10.569Z,11.40
2023-04-24T01:19:38.122Z,11.30
2023-04-24T01:22:12.761Z,11.30
2023-04-24T01:24:39.854Z,11.30
2023-04-24T01:27:07.003Z,11.20
2023-04-24T01:29:33.870Z,11.20
2023-04-24T01:32:00.771Z,11.20
2023-04-24T01:34:28.083Z,11.20
2023-04-24T01:36:55.098Z,11.30
2023-04-24T01:39:24.092Z,11.20
2023-04-24T01:41:51.416Z,11.20
2023-04-24T01:44:19.007Z,11.20
2023-04-24T01:46:45.899Z,11.20
2023-04-24T01:49:12.696Z,11.20
2023-04-24T01:51:39.616Z,11.10
2023-04-24T01:54:06.927Z,11.20
2023-04-24T01:56:36.816Z,11.20
2023-04-24T01:59:04.585Z,11.20
2023-04-24T02:01:37.658Z,11.30
2023-04-24T02:04:05.528Z,11.30
2023-04-24T02:06:32.623Z,11.40
2023-04-24T02:09:00.582Z,11.40
2023-04-24T02:11:27.579Z,11.40
2023-04-24T02:13:54.311Z,11.50
2023-04-24T02:16:21.169Z,11.50
2023-04-24T02:18:47.896Z,11.40
2023-04-24T02:21:14.589Z,11.50
2023-04-24T02:23:41.352Z,11.40
2023-04-24T02:26:08.096Z,11.50
2023-04-24T02:28:34.798Z,11.40
2023-04-24T02:31:01.546Z,11.50
2023-04-24T02:33:28.212Z,11.40
2023-04-24T02:35:54.846Z,11.40
2023-04-24T02:38:21.547Z,11.40
2023-04-24T02:40:48.178Z,10.30
2023-04-24T02:43:14.856Z,11.40
2023-04-24T02:45:41.547Z,11.40
2023-04-24T02:48:08.176Z,11.40
2023-04-24T02:50:34.815Z,11.40
2023-04-24T02:53:01.521Z,11.50
2023-04-24T02:55:28.168Z,11.50
2023-04-24T02:57:54.872Z,11.50
2023-04-24T03:00:21.635Z,11.50
2023-04-24T03:02:48.961Z,11.50
2023-04-24T03:05:15.756Z,11.40
2023-04-24T03:07:42.497Z,11.50
2023-04-24T03:10:09.564Z,11.50
2023-04-24T03:12:36.214Z,11.50
2023-04-24T03:15:02.981Z,11.60
2023-04-24T03:17:29.831Z,11.60
2023-04-24T03:19:56.477Z,11.60
2023-04-24T03:22:23.082Z,11.60
2023-04-24T03:24:49.750Z,11.60
2023-04-24T03:27:16.374Z,11.60
2023-04-24T03:29:43.225Z,11.60
2023-04-24T03:32:10.040Z,11.70
2023-04-24T03:34:36.703Z,11.70
2023-04-24T03:37:03.316Z,11.60
2023-04-24T03:39:30.004Z,11.60
2023-04-24T03:41:56.864Z,11.60
2023-04-24T03:44:23.526Z,11.50
2023-04-24T03:46:50.246Z,11.50
2023-04-24T03:49:16.884Z,11.50
2023-04-24T03:51:43.502Z,11.50
2023-04-24T03:54:10.101Z,11.50
2023-04-24T03:56:36.767Z,11.50
2023-04-24T03:59:03.452Z,11.40
2023-04-24T04:01:30.105Z,11.50
2023-04-24T04:03:56.867Z,11.40
2023-04-24T04:06:23.821Z,11.50
2023-04-24T04:08:50.459Z,11.50
2023-04-24T04:11:17.719Z,11.40
2023-04-24T04:13:44.386Z,11.40
2023-04-24T04:16:11.013Z,11.30
2023-04-24T04:18:38.623Z,11.30
2023-04-24T04:21:05.260Z,11.20
2023-04-24T04:23:33.020Z,11.10
2023-04-24T04:25:59.717Z,11.00
2023-04-24T04:28:27.254Z,10.80
2023-04-24T04:30:58.500Z,10.70
2023-04-24T04:33:26.792Z,10.70
2023-04-24T04:35:53.728Z,10.70
2023-04-24T04:38:20.859Z,10.60
2023-04-24T04:40:47.557Z,10.50
2023-04-24T04:43:17.392Z,10.50
2023-04-24T04:45:44.389Z,10.50
2023-04-24T04:48:13.740Z,10.50
2023-04-24T04:50:40.484Z,10.50
2023-04-24T04:53:07.923Z,10.50
2023-04-24T04:55:34.645Z,10.50
2023-04-24T04:58:01.823Z,10.40
2023-04-24T05:00:29.960Z,10.50
2023-04-24T05:03:05.952Z,10.40
2023-04-24T05:05:42.625Z,10.50
2023-04-24T05:08:19.785Z,10.50
2023-04-24T05:10:52.773Z,10.50
2023-04-24T05:13:28.226Z,10.60
2023-04-24T05:15:59.348Z,10.60
2023-04-24T05:18:26.035Z,10.60
2023-04-24T05:20:52.803Z,10.70
2023-04-24T05:23:19.418Z,10.70
2023-04-24T05:25:47.153Z,10.70
2023-04-24T05:28:13.808Z,10.70
2023-04-24T05:30:40.619Z,10.80
2023-04-24T05:33:07.478Z,10.90
2023-04-24T05:35:34.180Z,10.90
2023-04-24T05:38:00.887Z,10.90
2023-04-24T05:40:27.538Z,10.80
2023-04-24T05:42:54.159Z,10.80
2023-04-24T05:45:20.834Z,10.70
2023-04-24T05:47:47.846Z,10.60
2023-04-24T05:50:14.975Z,10.60
2023-04-24T05:52:41.732Z,10.60
2023-04-24T05:55:08.732Z,10.70
2023-04-24T05:57:35.629Z,10.80
2023-04-24T06:00:02.330Z,10.90
2023-04-24T06:02:33.281Z,10.90
2023-04-24T06:05:00.806Z,11.00
2023-04-24T06:07:27.613Z,10.90
2023-04-24T06:09:54.207Z,10.90
2023-04-24T06:12:21.012Z,10.90
2023-04-24T06:14:47.688Z,11.00
2023-04-24T06:17:14.489Z,11.20
2023-04-24T06:19:41.788Z,11.30
2023-04-24T06:22:10.868Z,11.50
2023-04-24T06:24:37.782Z,11.70
2023-04-24T06:27:04.483Z,11.70
2023-04-24T06:29:31.177Z,11.80
2023-04-24T06:31:57.901Z,11.80
2023-04-24T06:34:24.588Z,11.70
2023-04-24T06:36:51.372Z,11.70
2023-04-24T06:39:18.109Z,11.70
2023-04-24T06:41:44.713Z,11.80
2023-04-24T06:44:11.437Z,11.80
2023-04-24T06:46:39.730Z,11.80
2023-04-24T06:49:07.733Z,11.90
2023-04-24T06:51:34.441Z,12.00
2023-04-24T06:54:01.158Z,12.00
2023-04-24T06:56:29.760Z,12.10
2023-04-24T06:58:56.402Z,12.10
2023-04-24T07:01:23.029Z,12.20
2023-04-24T07:03:49.826Z,12.20
2023-04-24T07:06:17.732Z,12.30
2023-04-24T07:08:44.659Z,12.40
2023-04-24T07:11:11.323Z,12.40
2023-04-24T07:13:42.685Z,12.40
2023-04-24T07:16:09.830Z,12.40
2023-04-24T07:18:37.498Z,12.50
2023-04-24T07:21:04.207Z,13.10
2023-04-24T07:23:31.689Z,13.90
2023-04-24T07:25:58.597Z,14.80
2023-04-24T07:28:25.716Z,15.20
2023-04-24T07:30:54.881Z,15.30
2023-04-24T07:33:21.679Z,15.20
2023-04-24T07:35:48.595Z,15.10
2023-04-24T07:38:15.392Z,15.10
2023-04-24T07:40:41.994Z,15.20
2023-04-24T07:43:08.616Z,15.60
2023-04-24T07:45:38.058Z,16.00
2023-04-24T07:48:04.971Z,16.20
2023-04-24T07:50:31.885Z,16.20
2023-04-24T07:52:58.657Z,16.30
2023-04-24T07:55:27.885Z,16.30
2023-04-24T07:57:55.051Z,16.00
2023-04-24T08:00:21.895Z,15.80
2023-04-24T08:02:48.929Z,15.90
2023-04-24T08:05:15.863Z,16.10
2023-04-24T08:07:43.642Z,16.40
2023-04-24T08:10:13.461Z,16.80
2023-04-24T08:12:40.250Z,17.20
2023-04-24T08:15:07.408Z,17.50
2023-04-24T08:17:36.133Z,17.70
2023-04-24T08:20:05.966Z,17.70
2023-04-24T08:22:32.642Z,17.70
2023-04-24T08:25:01.265Z,17.60
2023-04-24T08:27:28.020Z,17.80
2023-04-24T08:29:55.696Z,18.20
2023-04-24T08:32:22.510Z,18.20
2023-04-24T08:34:49.897Z,18.00
2023-04-24T08:37:16.763Z,17.90
2023-04-24T08:39:43.731Z,18.00
2023-04-24T08:42:12.379Z,18.10
2023-04-24T08:44:39.394Z,17.70
2023-04-24T08:47:08.321Z,17.40
2023-04-24T08:49:37.024Z,17.20
2023-04-24T08:52:04.002Z,16.80
2023-04-24T08:54:30.949Z,16.50
2023-04-24T08:57:04.758Z,16.50
2023-04-24T08:59:32.558Z,16.10
2023-04-24T09:01:59.994Z,15.70
2023-04-24T09:04:28.674Z,15.40
2023-04-24T09:06:58.240Z,15.20
2023-04-24T09:09:26.321Z,14.70
2023-04-24T09:11:56.381Z,14.30
2023-04-24T09:14:24.600Z,14.00
2023-04-24T09:16:51.987Z,14.00
2023-04-24T09:19:18.851Z,14.00
2023-04-24T09:21:47.588Z,14.20
2023-04-24T09:24:21.319Z,14.20
2023-04-24T09:26:48.027Z,14.30
2023-04-24T09:29:18.792Z,14.30
2023-04-24T09:31:46.887Z,14.30
2023-04-24T09:34:14.008Z,14.30
2023-04-24T09:36:44.402Z,14.60
2023-04-24T09:39:20.791Z,14.90
2023-04-24T09:42:01.863Z,14.60
2023-04-24T09:44:29.426Z,14.20
2023-04-24T09:47:00.890Z,14.10
2023-04-24T09:49:33.416Z,14.20
2023-04-24T09:52:11.706Z,14.70
2023-04-24T09:54:39.358Z,15.00
2023-04-24T09:57:08.428Z,15.20
2023-04-24T09:59:37.251Z,15.40
2023-04-24T10:02:17.391Z,15.30
2023-04-24T10:04:56.971Z,15.20
2023-04-24T10:07:27.125Z,14.80
2023-04-24T10:09:54.270Z,14.40
2023-04-24T10:12:22.012Z,14.20
2023-04-24T10:14:49.675Z,14.10
2023-04-24T10:17:16.751Z,14.00
2023-04-24T10:19:44.735Z,13.80
2023-04-24T10:22:12.066Z,13.60
2023-04-24T10:24:39.370Z,13.80
2023-04-24T10:27:06.987Z,14.30
2023-04-24T10:29:36.730Z,15.10
2023-04-24T10:32:03.605Z,15.90
2023-04-24T10:34:30.505Z,16.40
2023-04-24T10:36:58.274Z,16.80
2023-04-24T10:39:27.796Z,16.80
2023-04-24T10:41:58.137Z,16.50
2023-04-24T10:44:25.548Z,16.30
2023-04-24T10:46:57.128Z,16.20
2023-04-24T10:49:31.905Z,15.90
2023-04-24T10:52:08.742Z,15.70
2023-04-24T10:54:41.394Z,15.30
2023-04-24T10:57:23.048Z,15.10
2023-04-24T10:59:51.734Z,15.50
2023-04-24T11:02:19.270Z,14.40
2023-04-24T11:04:46.626Z,14.00
2023-04-24T11:07:13.687Z,13.80
2023-04-24T11:09:43.851Z,13.70
2023-04-24T11:12:12.338Z,13.50
2023-04-24T11:15:00.531Z,13.70
2023-04-24T11:17:38.511Z,13.90
2023-04-24T11:20:25.758Z,14.00
2023-04-24T11:22:55.879Z,14.30
2023-04-24T11:25:23.708Z,13.90
2023-04-24T11:27:51.163Z,13.70
2023-04-24T11:30:21.675Z,13.60
2023-04-24T11:32:51.283Z,13.30
2023-04-24T11:35:18.929Z,13.30
2023-04-24T11:37:58.411Z,13.20
2023-04-24T11:40:34.458Z,13.00
2023-04-24T11:43:02.026Z,12.90
2023-04-24T11:45:31.526Z,12.90
2023-04-24T11:47:59.807Z,13.10
2023-04-24T11:50:28.755Z,13.60
2023-04-24T11:52:56.554Z,13.90
2023-04-24T11:55:23.713Z,14.30
2023-04-24T11:57:52.221Z,14.70
2023-04-24T12:00:24.581Z,14.90
2023-04-24T12:02:52.430Z,15.00
2023-04-24T12:05:24.312Z,15.00
2023-04-24T12:07:51.200Z,15.10
2023-04-24T12:10:22.333Z,15.40
2023-04-24T12:12:51.320Z,15.80
2023-04-24T12:15:19.917Z,16.00
2023-04-24T12:17:46.975Z,16.40
2023-04-24T12:20:14.637Z,16.70
2023-04-24T12:22:50.411Z,16.90
2023-04-24T12:25:19.576Z,17.00
2023-04-24T12:27:47.313Z,16.80
2023-04-24T12:30:17.577Z,16.60
2023-04-24T12:32:46.363Z,16.40
2023-04-24T12:35:13.500Z,16.30
2023-04-24T12:37:45.824Z,16.20
2023-04-24T12:40:14.770Z,16.10
2023-04-24T12:42:46.593Z,15.90
2023-04-24T12:45:14.119Z,15.80
2023-04-24T12:47:42.152Z,15.70
2023-04-24T12:50:10.780Z,15.70
2023-04-24T12:52:38.405Z,15.70
2023-04-24T12:55:07.564Z,15.80
2023-04-24T12:57:34.674Z,16.10
2023-04-24T13:00:01.813Z,16.30
2023-04-24T13:02:31.366Z,16.80
2023-04-24T13:04:59.368Z,16.90
2023-04-24T13:07:26.729Z,16.90
2023-04-24T13:09:54.204Z,17.00
2023-04-24T13:12:21.296Z,17.10
2023-04-24T13:14:48.232Z,17.30
2023-04-24T13:17:15.303Z,17.50
2023-04-24T13:19:45.039Z,17.60
2023-04-24T13:22:12.966Z,17.90
2023-04-24T13:24:43.396Z,18.10
2023-04-24T13:27:10.673Z,18.10
2023-04-24T13:29:37.912Z,18.00
2023-04-24T13:32:04.921Z,17.80
2023-04-24T13:34:31.820Z,17.40
2023-04-24T13:36:59.406Z,16.90
2023-04-24T13:39:27.264Z,16.60
2023-04-24T13:41:54.646Z,16.30
2023-04-24T13:44:23.429Z,15.90
2023-04-24T13:46:53.001Z,15.70
2023-04-24T13:49:19.903Z,15.70
2023-04-24T13:51:46.874Z,15.80
2023-04-24T13:54:13.903Z,15.80
2023-04-24T13:56:41.634Z,15.90
2023-04-24T13:59:08.374Z,16.20
2023-04-24T14:01:35.170Z,16.40
2023-04-24T14:04:02.079Z,16.60
2023-04-24T14:06:29.079Z,16.50
2023-04-24T14:08:55.743Z,16.30
2023-04-24T14:11:23.225Z,16.20
2023-04-24T14:13:50.153Z,16.10
2023-04-24T14:16:16.885Z,15.90
2023-04-24T14:18:43.555Z,15.80
2023-04-24T14:21:10.389Z,15.70
2023-04-24T14:23:37.059Z,15.80
2023-04-24T14:26:04.092Z,15.80
2023-04-24T14:28:30.737Z,15.70
2023-04-24T14:30:57.380Z,15.70
2023-04-24T14:33:23.988Z,15.60
2023-04-24T14:35:50.739Z,15.60
2023-04-24T14:38:17.395Z,15.50
2023-04-24T14:41:05.277Z,15.50
2023-04-24T14:43:31.076Z,15.60
2023-04-24T14:45:57.774Z,15.70
2023-04-24T14:48:24.432Z,15.70
2023-04-24T14:50:51.246Z,15.70
2023-04-24T14:53:18.183Z,15.70
2023-04-24T14:55:44.869Z,15.70
2023-04-24T14:58:11.924Z,15.70
2023-04-24T15:00:38.560Z,15.60
2023-04-24T15:03:05.739Z,15.60
2023-04-24T15:05:32.834Z,15.70
2023-04-24T15:07:59.651Z,15.70
2023-04-24T15:10:26.614Z,15.80
2023-04-24T15:12:53.541Z,15.80
2023-04-24T15:15:20.212Z,15.70
2023-04-24T15:17:46.882Z,15.70
2023-04-24T15:20:13.583Z,15.70
2023-04-24T15:22:40.241Z,15.70
2023-04-24T15:25:07.394Z,15.60
2023-04-24T15:27:47.072Z,15.40
2023-04-24T15:30:14.667Z,15.20
2023-04-24T15:32:41.582Z,15.10
2023-04-24T15:35:10.112Z,15.00
2023-04-24T15:37:38.055Z,14.90
2023-04-24T15:40:06.459Z,15.00
2023-04-24T15:42:33.310Z,15.00
2023-04-24T15:45:00.217Z,15.00
2023-04-24T15:47:26.978Z,14.90
2023-04-24T15:49:54.509Z,14.80
2023-04-24T15:52:21.425Z,14.80
2023-04-24T15:54:48.192Z,14.80
2023-04-24T15:57:14.911Z,14.70
2023-04-24T15:59:41.935Z,14.80
2023-04-24T16:02:10.649Z,14.90
2023-04-24T16:04:37.848Z,15.00
2023-04-24T16:07:04.747Z,15.10
2023-04-24T16:09:31.391Z,15.00
2023-04-24T16:11:58.168Z,15.00
2023-04-24T16:14:25.347Z,15.00
2023-04-24T16:16:51.956Z,15.00
2023-04-24T16:19:18.615Z,15.00
2023-04-24T16:21:45.337Z,15.00
2023-04-24T16:24:12.066Z,14.90
2023-04-24T16:26:39.737Z,14.90
2023-04-24T16:29:06.394Z,14.90
2023-04-24T16:31:33.344Z,14.80
2023-04-24T16:33:59.974Z,14.80
2023-04-24T16:36:26.921Z,14.90
2023-04-24T16:38:53.603Z,14.90
2023-04-24T16:41:20.412Z,15.00
2023-04-24T16:43:47.010Z,15.10
2023-04-24T16:46:13.647Z,15.00
2023-04-24T16:48:40.408Z,15.00
2023-04-24T16:51:07.100Z,14.90
2023-04-24T16:53:33.712Z,14.80
2023-04-24T16:56:00.724Z,14.80
2023-04-24T16:58:27.443Z,14.70
2023-04-24T17:00:54.079Z,14.70
2023-04-24T17:03:20.994Z,14.60
2023-04-24T17:05:48.020Z,14.50
2023-04-24T17:08:14.711Z,14.50
2023-04-24T17:10:41.439Z,14.50
2023-04-24T17:13:09.089Z,14.60
2023-04-24T17:15:35.893Z,14.60
2023-04-24T17:18:03.040Z,14.60
2023-04-24T17:20:30.297Z,14.60
2023-04-24T17:22:57.110Z,14.60
2023-04-24T17:25:23.793Z,14.50
2023-04-24T17:27:50.727Z,14.40
2023-04-24T17:30:17.972Z,14.10
2023-04-24T17:32:44.853Z,14.00
2023-04-24T17:35:11.559Z,13.60
2023-04-24T17:37:38.466Z,13.40
2023-04-24T17:40:05.713Z,13.20
2023-04-24T17:42:32.363Z,13.00
2023-04-24T17:44:58.969Z,12.70
2023-04-24T17:47:27.311Z,12.60
2023-04-24T17:49:54.060Z,12.50
2023-04-24T17:52:20.701Z,12.30
2023-04-24T17:54:49.574Z,12.20
2023-04-24T17:57:16.499Z,12.10
2023-04-24T17:59:43.161Z,12.00
2023-04-24T18:02:09.938Z,11.90
2023-04-24T18:04:39.089Z,11.90
2023-04-24T18:07:06.254Z,11.80
2023-04-24T18:09:32.915Z,11.70
2023-04-24T18:11:59.620Z,11.60
2023-04-24T18:14:28.257Z,11.60
2023-04-24T18:16:56.372Z,12.10
2023-04-24T18:19:24.370Z,11.50
2023-04-24T18:21:51.034Z,11.50
2023-04-24T18:24:17.724Z,11.40
2023-04-24T18:26:44.353Z,11.40
2023-04-24T18:29:10.960Z,11.40
2023-04-24T18:31:37.742Z,11.40
2023-04-24T18:34:04.699Z,11.40
2023-04-24T18:36:32.579Z,11.40
2023-04-24T18:38:59.210Z,11.40
2023-04-24T18:41:26.071Z,11.40
2023-04-24T18:43:52.812Z,11.40
2023-04-24T18:46:19.488Z,11.40
2023-04-24T18:48:46.212Z,11.40
2023-04-24T18:51:13.613Z,11.40
2023-04-24T18:53:40.622Z,11.50
2023-04-24T18:56:07.312Z,11.40
2023-04-24T18:58:33.953Z,11.50
2023-04-24T19:01:00.689Z,11.50
2023-04-24T19:03:28.268Z,11.40
2023-04-24T19:05:55.105Z,11.40
2023-04-24T19:08:21.705Z,11.40
2023-04-24T19:10:48.358Z,11.30
2023-04-24T19:13:14.959Z,11.30
2023-04-24T19:15:41.590Z,11.30
2023-04-24T19:18:08.254Z,11.30
2023-04-24T19:20:34.909Z,11.30
2023-04-24T19:23:01.623Z,11.30
2023-04-24T19:25:28.264Z,11.30
2023-04-24T19:27:54.955Z,11.30
2023-04-24T19:30:22.085Z,11.30
2023-04-24T19:32:48.755Z,11.30
2023-04-24T19:35:15.525Z,11.30
2023-04-24T19:37:42.251Z,11.30
2023-04-24T19:40:09.177Z,11.30
2023-04-24T19:42:43.224Z,11.30
2023-04-24T19:45:12.443Z,11.20
2023-04-24T19:47:39.367Z,11.10
2023-04-24T19:50:07.179Z,11.00
2023-04-24T19:52:33.859Z,10.90
2023-04-24T19:55:00.580Z,10.90
2023-04-24T19:57:27.257Z,10.90
2023-04-24T19:59:53.877Z,10.80
2023-04-24T20:02:20.599Z,10.80
2023-04-24T20:04:47.506Z,10.80
2023-04-24T20:07:14.282Z,10.80
2023-04-24T20:09:41.003Z,10.90
2023-04-24T20:12:07.728Z,10.90
2023-04-24T20:14:34.407Z,10.90
2023-04-24T20:17:01.077Z,10.80
2023-04-24T20:19:27.976Z,10.80
2023-04-24T20:21:54.811Z,10.80
2023-04-24T20:24:21.487Z,10.90
2023-04-24T20:26:48.104Z,10.90
2023-04-24T20:29:14.773Z,10.90
2023-04-24T20:31:41.760Z,10.80
2023-04-24T20:34:08.561Z,10.80
2023-04-24T20:36:35.344Z,10.70
2023-04-24T20:39:02.183Z,10.70
2023-04-24T20:41:30.262Z,10.60
2023-04-24T20:43:56.978Z,10.60
2023-04-24T20:46:23.684Z,10.70
2023-04-24T20:48:50.953Z,10.70
2023-04-24T20:51:19.487Z,10.70
2023-04-24T20:53:46.369Z,10.80
2023-04-24T20:56:13.017Z,10.80
2023-04-24T20:58:39.916Z,10.90
2023-04-24T21:01:06.812Z,10.90
2023-04-24T21:03:33.805Z,11.00
2023-04-24T21:06:00.607Z,11.00
2023-04-24T21:08:27.365Z,11.00
2023-04-24T21:10:54.000Z,11.00
2023-04-24T21:13:20.650Z,11.00
2023-04-24T21:15:47.350Z,11.00
2023-04-24T21:18:14.210Z,11.00
2023-04-24T21:20:40.940Z,10.90
2023-04-24T21:23:07.725Z,10.90
2023-04-24T21:25:35.798Z,10.90
2023-04-24T21:28:03.106Z,10.90
2023-04-24T21:30:30.386Z,10.90
2023-04-24T21:32:57.733Z,10.90
2023-04-24T21:35:24.398Z,10.90
2023-04-24T21:37:51.394Z,10.90
2023-04-24T21:40:18.262Z,10.90
2023-04-24T21:42:45.144Z,10.90
2023-04-24T21:45:11.956Z,10.90
2023-04-24T21:47:38.646Z,10.90
2023-04-24T21:50:05.883Z,10.90
2023-04-24T21:52:32.512Z,10.90
2023-04-24T21:54:59.124Z,11.00
2023-04-24T21:57:25.899Z,10.90
2023-04-24T21:59:52.640Z,10.90
2023-04-24T22:02:19.583Z,10.90
2023-04-24T22:04:46.563Z,10.90
2023-04-24T22:07:13.317Z,10.90
2023-04-24T22:09:40.092Z,10.90
2023-04-24T22:12:06.758Z,10.90
2023-04-24T22:14:33.541Z,10.90
2023-04-24T22:17:00.208Z,10.90
2023-04-24T22:19:28.209Z,10.80
2023-04-24T22:21:54.939Z,10.80
2023-04-24T22:24:21.590Z,10.80
2023-04-24T22:26:48.290Z,10.80
2023-04-24T22:29:15.163Z,10.70
2023-04-24T22:31:42.278Z,10.70
2023-04-24T22:34:09.386Z,10.70
2023-04-24T22:36:36.048Z,10.70
2023-04-24T22:39:03.217Z,10.70
2023-04-24T22:41:29.887Z,10.60
2023-04-24T22:43:56.650Z,10.60
2023-04-24T22:46:24.914Z,10.60
2023-04-24T22:48:51.647Z,10.60
2023-04-24T22:51:18.851Z,10.50
2023-04-24T22:53:46.087Z,10.40
2023-04-24T22:56:12.796Z,10.30
2023-04-24T22:58:39.510Z,10.20
2023-04-24T23:01:06.373Z,10.20
2023-04-24T23:03:33.424Z,10.10
2023-04-24T23:06:00.367Z,10.50
2023-04-24T23:08:27.088Z,10.00
2023-04-24T23:10:53.736Z,9.90
2023-04-24T23:13:20.393Z,9.90
2023-04-24T23:15:47.012Z,9.90
2023-04-24T23:18:13.864Z,9.90
2023-04-24T23:20:40.661Z,9.90
2023-04-24T23:23:07.363Z,9.90
2023-04-24T23:25:34.685Z,9.90
2023-04-24T23:28:01.361Z,9.90
2023-04-24T23:30:28.170Z,9.90
2023-04-24T23:32:54.839Z,9.80
2023-04-24T23:35:21.544Z,9.80
2023-04-24T23:37:48.200Z,9.80
2023-04-24T23:40:14.858Z,9.80
2023-04-24T23:42:41.496Z,9.80
2023-04-24T23:45:10.542Z,9.80
2023-04-24T23:47:37.840Z,9.70
2023-04-24T23:50:04.847Z,9.80
2023-04-24T23:52:31.597Z,9.80
2023-04-24T23:54:58.292Z,9.80
2023-04-24T23:57:24.933Z,9.70
2023-04-24T23:59:51.578Z,9.70
